Terminal Aerodrome Forecast
Issued by NWS

Current Version | Previous Version | Text Only | Print | Product List | Glossary Off
Versions: 1 2 3 4 5 6 7 8 9 10 11 12 13 14 15 16 17 18 19 20 21 22 23 24 25 26 27

654
FTUS41 KPBZ 291245 AAA
TAFMGW
TAF AMD
KMGW 291245Z 2913/3012 00000KT 6SM BR BKN004 BKN017 OVC026
     FM291400 29004KT P6SM BKN020
     FM291800 30005KT P6SM BKN050=

USA.gov is the U.S. government's official web portal to all federal, state and local government web resources and services.